Time;durP1;ratioP1;P1;durP2;ratioP2;P2;SDS_P1;SDS_P2;PMS_P1;PMS_P2;Temp;Humidity;BMP_temperature;BMP_pressure;BME280_temperature;BME280_humidity;BME280_pressure;Samples;Min_cycle;Max_cycle;Signal;HPM_P1;HPM_P2
2024/01/30 00:01:52;;;;;;;26.65;15.00;;;2.20;69.40;;;;;;5015575;28;20514;-61
2024/01/30 00:04:18;;;;;;;28.40;15.65;;;2.20;69.20;;;;;;5022428;28;20052;-60
2024/01/30 00:06:44;;;;;;;22.67;13.85;;;2.20;69.00;;;;;;5014808;28;20619;-62
2024/01/30 00:09:10;;;;;;;26.08;15.68;;;2.10;68.90;;;;;;5019092;28;20116;-61
2024/01/30 00:11:37;;;;;;;27.17;14.50;;;2.10;68.80;;;;;;5013782;28;20038;-60
2024/01/30 00:14:03;;;;;;;25.13;14.90;;;2.10;68.80;;;;;;5016670;28;20030;-61
2024/01/30 00:16:29;;;;;;;25.60;15.20;;;2.10;68.80;;;;;;5009394;28;20025;-61
2024/01/30 00:18:55;;;;;;;23.60;14.93;;;2.10;68.90;;;;;;5019261;28;20639;-62
2024/01/30 00:21:21;;;;;;;24.27;14.95;;;2.00;68.90;;;;;;5018024;28;20544;-61
2024/01/30 00:23:48;;;;;;;34.47;16.35;;;2.00;69.00;;;;;;5021229;28;20017;-60
2024/01/30 00:26:14;;;;;;;24.17;15.45;;;2.00;69.10;;;;;;5015109;28;20105;-60
2024/01/30 00:28:41;;;;;;;26.00;15.63;;;2.00;69.40;;;;;;5011163;28;20021;-60
2024/01/30 00:31:06;;;;;;;31.10;16.13;;;2.00;69.40;;;;;;5012798;28;20091;-62
2024/01/30 00:33:32;;;;;;;27.60;16.48;;;2.00;69.30;;;;;;5016763;28;20029;-60
2024/01/30 00:35:58;;;;;;;27.17;14.80;;;2.00;69.30;;;;;;5013188;28;20400;-60
2024/01/30 00:38:23;;;;;;;28.40;15.02;;;1.90;69.10;;;;;;5020438;28;20446;-61
2024/01/30 00:40:49;;;;;;;25.70;14.40;;;1.90;69.10;;;;;;5014902;28;20508;-62
2024/01/30 00:43:16;;;;;;;30.75;15.50;;;1.90;69.10;;;;;;5015039;28;20471;-60
2024/01/30 00:45:45;;;;;;;36.45;16.17;;;1.90;69.30;;;;;;4911033;28;20511;-60
2024/01/30 00:48:10;;;;;;;24.52;14.93;;;1.80;69.30;;;;;;5019167;28;20734;-61
2024/01/30 00:50:36;;;;;;;28.35;15.55;;;1.90;69.30;;;;;;5006446;28;20037;-60
2024/01/30 00:53:01;;;;;;;28.70;16.13;;;1.80;69.20;;;;;;5007530;28;20030;-61
2024/01/30 00:55:27;;;;;;;25.67;14.98;;;1.90;69.40;;;;;;5017406;28;20048;-61
2024/01/30 00:57:53;;;;;;;25.00;14.88;;;1.80;69.20;;;;;;5011616;28;20507;-62
2024/01/30 01:00:20;;;;;;;23.38;14.65;;;1.80;69.10;;;;;;5018959;28;20759;-61
2024/01/30 01:02:46;;;;;;;25.50;15.38;;;1.80;69.10;;;;;;5019179;28;20025;-60
2024/01/30 01:05:12;;;;;;;26.25;15.30;;;1.80;69.00;;;;;;5010819;28;20030;-61
2024/01/30 01:07:38;;;;;;;28.40;14.98;;;1.70;69.10;;;;;;5014176;28;20034;-61
2024/01/30 01:10:04;;;;;;;24.77;13.85;;;1.80;69.10;;;;;;5011923;28;20030;-60
2024/01/30 01:12:29;;;;;;;25.00;14.93;;;1.70;69.10;;;;;;5004664;28;20080;-61
2024/01/30 01:14:55;;;;;;;27.75;15.55;;;1.70;69.00;;;;;;5026414;28;20435;-60
2024/01/30 01:17:21;;;;;;;25.92;15.65;;;1.70;68.90;;;;;;5024253;28;20030;-61
2024/01/30 01:19:46;;;;;;;23.40;13.38;;;1.70;68.90;;;;;;5016655;28;20076;-62
2024/01/30 01:22:12;;;;;;;25.58;15.60;;;1.70;68.90;;;;;;5017345;28;20022;-61
2024/01/30 01:24:38;;;;;;;26.13;16.05;;;1.70;69.10;;;;;;5015503;28;20034;-61
2024/01/30 01:27:05;;;;;;;22.02;13.70;;;1.70;69.20;;;;;;5017680;28;20033;-60
2024/01/30 01:29:31;;;;;;;26.63;15.38;;;1.60;69.30;;;;;;5017294;28;20899;-60
2024/01/30 01:31:58;;;;;;;26.17;15.57;;;1.60;69.40;;;;;;5019782;28;20028;-62
2024/01/30 01:34:24;;;;;;;24.23;14.13;;;1.60;69.50;;;;;;5012593;28;20041;-63
2024/01/30 01:36:51;;;;;;;23.55;14.02;;;1.60;69.50;;;;;;5019919;28;20038;-61
2024/01/30 01:39:17;;;;;;;24.42;14.00;;;1.70;69.60;;;;;;5014222;28;20384;-61
2024/01/30 01:41:43;;;;;;;26.08;14.35;;;1.70;69.50;;;;;;5015515;28;20055;-60
2024/01/30 01:44:09;;;;;;;23.52;14.27;;;1.70;69.50;;;;;;5011882;28;20030;-61
2024/01/30 01:46:35;;;;;;;23.67;15.10;;;1.70;69.60;;;;;;5010918;28;20065;-61
2024/01/30 01:49:04;;;;;;;24.98;14.80;;;1.70;69.60;;;;;;5041163;28;20084;-60
2024/01/30 01:51:31;;;;;;;26.60;15.25;;;1.70;69.70;;;;;;5017268;28;20496;-61
2024/01/30 01:54:01;;;;;;;24.98;14.25;;;1.70;69.60;;;;;;5009328;28;20365;-61
2024/01/30 01:56:27;;;;;;;22.60;13.77;;;1.70;69.50;;;;;;5019013;28;20026;-62
2024/01/30 01:58:59;;;;;;;24.02;14.32;;;1.70;69.50;;;;;;5014244;28;20071;-61
2024/01/30 02:01:27;;;;;;;25.58;14.35;;;1.70;69.50;;;;;;5009614;28;20065;-61
2024/01/30 02:03:53;;;;;;;25.25;15.20;;;1.70;69.40;;;;;;5011566;28;20366;-60
2024/01/30 02:06:19;;;;;;;24.85;14.75;;;1.70;69.40;;;;;;5014521;28;20029;-61
2024/01/30 02:08:44;;;;;;;23.90;14.48;;;1.70;69.40;;;;;;5015954;28;20030;-61
2024/01/30 02:11:11;;;;;;;23.70;14.07;;;1.70;69.40;;;;;;5012240;28;20476;-62
2024/01/30 02:13:37;;;;;;;27.73;14.20;;;1.70;69.40;;;;;;5015438;28;20018;-62
2024/01/30 02:16:03;;;;;;;26.23;14.27;;;1.70;69.50;;;;;;5018932;28;20036;-62
2024/01/30 02:18:28;;;;;;;27.75;14.38;;;1.70;69.60;;;;;;5015746;28;20443;-60
2024/01/30 02:20:58;;;;;;;25.40;15.05;;;1.70;69.60;;;;;;5016168;28;20029;-61
2024/01/30 02:23:26;;;;;;;24.23;14.80;;;1.70;69.70;;;;;;5006112;28;20042;-61
2024/01/30 02:25:52;;;;;;;24.17;14.10;;;1.70;69.60;;;;;;5043710;28;20021;-61
2024/01/30 02:28:19;;;;;;;29.55;15.15;;;1.70;69.60;;;;;;5013606;28;20137;-62
2024/01/30 02:30:46;;;;;;;24.52;14.23;;;1.80;69.60;;;;;;5012691;28;20052;-61
2024/01/30 02:33:12;;;;;;;25.27;15.23;;;1.80;69.40;;;;;;5018355;28;20113;-60
2024/01/30 02:35:38;;;;;;;30.73;15.32;;;1.80;69.50;;;;;;5014989;28;20022;-61
2024/01/30 02:38:04;;;;;;;25.38;15.30;;;1.80;69.70;;;;;;5014612;28;20516;-60
2024/01/30 02:40:30;;;;;;;23.95;14.23;;;1.80;69.90;;;;;;5013071;28;20026;-62
2024/01/30 02:42:56;;;;;;;27.98;15.32;;;1.80;69.90;;;;;;5019186;28;20103;-62
2024/01/30 02:45:22;;;;;;;28.27;16.00;;;1.80;69.90;;;;;;4918091;28;20554;-62
2024/01/30 02:47:48;;;;;;;25.75;14.95;;;1.80;69.90;;;;;;5022609;28;20037;-62
2024/01/30 02:50:14;;;;;;;31.80;14.48;;;1.80;70.50;;;;;;5018551;28;20038;-61
2024/01/30 02:52:40;;;;;;;24.13;14.32;;;1.80;69.70;;;;;;5009659;28;20062;-61
2024/01/30 02:55:07;;;;;;;26.45;14.77;;;1.80;69.70;;;;;;5013129;28;20068;-62
2024/01/30 02:57:32;;;;;;;30.50;14.95;;;1.80;69.70;;;;;;5013422;28;20176;-62
2024/01/30 02:59:58;;;;;;;23.15;13.65;;;1.80;69.70;;;;;;5015581;28;20116;-62
2024/01/30 03:02:24;;;;;;;31.85;15.07;;;1.80;69.70;;;;;;5011292;28;20034;-63
2024/01/30 03:04:49;;;;;;;24.38;14.18;;;1.80;69.60;;;;;;5010085;28;20025;-61
2024/01/30 03:07:15;;;;;;;25.45;14.80;;;1.90;69.60;;;;;;5013939;28;20053;-61
2024/01/30 03:09:44;;;;;;;27.65;14.27;;;1.80;69.50;;;;;;5009323;28;20034;-61
2024/01/30 03:12:10;;;;;;;26.42;14.55;;;1.90;69.70;;;;;;5018543;28;20057;-61
2024/01/30 03:14:35;;;;;;;28.45;15.90;;;1.80;69.70;;;;;;5011001;28;20064;-61
2024/01/30 03:17:01;;;;;;;25.10;14.25;;;1.80;69.70;;;;;;5012944;28;20042;-61
2024/01/30 03:19:27;;;;;;;25.02;14.15;;;1.80;69.60;;;;;;5017176;28;20034;-63
2024/01/30 03:21:53;;;;;;;24.75;15.15;;;1.80;69.60;;;;;;5015120;28;21555;-60
2024/01/30 03:24:19;;;;;;;26.35;14.43;;;1.80;69.70;;;;;;5017869;28;20025;-62
2024/01/30 03:26:44;;;;;;;25.90;14.70;;;1.80;69.60;;;;;;5018003;28;20025;-62
2024/01/30 03:29:10;;;;;;;21.50;13.27;;;1.80;69.70;;;;;;5017443;28;20057;-62
2024/01/30 03:31:36;;;;;;;26.13;15.27;;;1.80;69.70;;;;;;5015693;28;20057;-63
2024/01/30 03:34:02;;;;;;;27.50;14.68;;;1.80;69.80;;;;;;5019641;28;20784;-62
2024/01/30 03:36:28;;;;;;;27.35;13.60;;;1.80;69.90;;;;;;5017402;28;20029;-63
2024/01/30 03:38:53;;;;;;;22.63;14.15;;;1.80;69.90;;;;;;5011611;28;20136;-61
2024/01/30 03:41:19;;;;;;;22.48;14.65;;;1.90;70.00;;;;;;5012483;28;20033;-61
2024/01/30 03:43:45;;;;;;;30.52;15.77;;;1.90;70.10;;;;;;5013314;28;20192;-61
2024/01/30 03:46:13;;;;;;;27.73;15.05;;;1.90;70.10;;;;;;5015639;28;20021;-61
2024/01/30 03:48:39;;;;;;;24.15;14.82;;;1.90;70.00;;;;;;5017270;28;20108;-62
2024/01/30 03:51:05;;;;;;;22.08;14.18;;;1.90;70.00;;;;;;5012876;28;20041;-63
2024/01/30 03:53:31;;;;;;;25.85;14.40;;;1.90;70.20;;;;;;5016378;28;20036;-63
2024/01/30 03:55:57;;;;;;;25.83;15.07;;;1.90;70.20;;;;;;5007170;28;20025;-63
2024/01/30 03:58:22;;;;;;;25.20;15.30;;;2.00;70.10;;;;;;5015505;28;20535;-62
2024/01/30 04:00:48;;;;;;;25.33;14.40;;;2.00;70.10;;;;;;5009244;28;20042;-62
2024/01/30 04:03:17;;;;;;;23.10;14.02;;;2.00;70.10;;;;;;5019770;28;20480;-62
2024/01/30 04:05:43;;;;;;;24.45;14.38;;;2.00;70.40;;;;;;5014656;28;20081;-62
2024/01/30 04:08:10;;;;;;;24.48;14.25;;;2.00;70.40;;;;;;5015195;28;20033;-62
2024/01/30 04:10:35;;;;;;;25.45;15.23;;;2.00;70.50;;;;;;5015319;28;20129;-62
2024/01/30 04:13:01;;;;;;;25.15;15.27;;;2.00;70.50;;;;;;5010379;28;20085;-63
2024/01/30 04:15:27;;;;;;;23.23;14.70;;;2.10;70.60;;;;;;5019791;28;20029;-63
2024/01/30 04:17:53;;;;;;;28.27;15.55;;;2.10;70.60;;;;;;5020322;28;20084;-62
2024/01/30 04:20:19;;;;;;;25.05;15.40;;;2.10;70.60;;;;;;5017019;28;20025;-62
2024/01/30 04:22:45;;;;;;;27.45;14.88;;;2.10;70.60;;;;;;5018133;28;20029;-62
2024/01/30 04:25:12;;;;;;;24.13;15.32;;;2.10;70.50;;;;;;5013904;28;20026;-62
2024/01/30 04:27:38;;;;;;;31.17;15.43;;;2.20;70.50;;;;;;5011585;28;20078;-62
2024/01/30 04:30:04;;;;;;;30.75;16.13;;;2.20;70.50;;;;;;5021910;28;20391;-62
2024/01/30 04:32:30;;;;;;;33.08;15.35;;;2.20;70.70;;;;;;5020027;28;20030;-64
2024/01/30 04:34:56;;;;;;;38.38;15.77;;;2.20;70.80;;;;;;5014090;28;20372;-61
2024/01/30 04:37:21;;;;;;;33.13;16.02;;;2.20;70.80;;;;;;5017165;28;20052;-61
2024/01/30 04:39:47;;;;;;;35.15;15.00;;;2.30;70.80;;;;;;5014707;28;20033;-62
2024/01/30 04:42:13;;;;;;;32.08;16.85;;;2.30;70.80;;;;;;5011825;28;20022;-61
2024/01/30 04:44:39;;;;;;;29.40;15.68;;;2.30;70.80;;;;;;4955713;28;20435;-63
2024/01/30 04:47:08;;;;;;;45.28;16.77;;;2.30;70.80;;;;;;5012298;28;20055;-63
2024/01/30 04:49:33;;;;;;;41.75;16.38;;;2.30;70.90;;;;;;5012463;28;20037;-62
2024/01/30 04:51:59;;;;;;;40.53;16.92;;;2.30;70.90;;;;;;5013344;28;20060;-63
2024/01/30 04:54:25;;;;;;;44.97;17.52;;;2.30;70.90;;;;;;5013578;28;20040;-62
2024/01/30 04:56:51;;;;;;;44.25;16.63;;;2.30;70.90;;;;;;5017120;28;20069;-61
2024/01/30 04:59:16;;;;;;;44.28;18.48;;;2.30;70.90;;;;;;5018583;28;20029;-63
2024/01/30 05:01:42;;;;;;;35.30;17.30;;;2.30;71.00;;;;;;5013548;28;20030;-62
2024/01/30 05:04:09;;;;;;;39.25;18.27;;;2.30;71.20;;;;;;5011744;28;20033;-62
2024/01/30 05:06:34;;;;;;;47.60;19.13;;;2.30;71.40;;;;;;5016734;28;20477;-62
2024/01/30 05:09:00;;;;;;;35.78;18.33;;;2.30;71.40;;;;;;5016181;28;20043;-62
2024/01/30 05:11:25;;;;;;;45.78;19.13;;;2.30;71.60;;;;;;5012925;28;20112;-62
2024/01/30 05:13:51;;;;;;;41.55;19.27;;;2.30;71.60;;;;;;5013389;28;20038;-62
2024/01/30 05:16:17;;;;;;;55.92;21.52;;;2.30;71.60;;;;;;5019356;28;20037;-61
2024/01/30 05:18:43;;;;;;;53.05;22.08;;;2.30;71.70;;;;;;5007490;28;20029;-62
2024/01/30 05:21:10;;;;;;;51.50;23.10;;;2.30;71.60;;;;;;5018784;28;20040;-62
2024/01/30 05:23:36;;;;;;;48.60;22.83;;;2.30;71.60;;;;;;5014318;28;20025;-62
2024/01/30 05:26:02;;;;;;;55.65;22.30;;;2.30;71.60;;;;;;5016227;28;20028;-61
2024/01/30 05:28:31;;;;;;;61.53;25.80;;;2.30;71.50;;;;;;5014344;28;20117;-62
2024/01/30 05:30:57;;;;;;;58.30;24.63;;;2.30;71.50;;;;;;5012419;28;20144;-62
2024/01/30 05:33:23;;;;;;;61.85;25.40;;;2.30;71.50;;;;;;5000576;28;20469;-62
2024/01/30 05:35:48;;;;;;;63.88;26.55;;;2.30;71.40;;;;;;5009984;28;20018;-62
2024/01/30 05:38:16;;;;;;;65.00;25.92;;;2.30;71.40;;;;;;5017114;28;20029;-63
2024/01/30 05:40:41;;;;;;;56.88;23.38;;;2.30;71.40;;;;;;5015548;28;20026;-63
2024/01/30 05:43:07;;;;;;;261.25;80.55;;;2.20;71.30;;;;;;5018565;28;20667;-61
2024/01/30 05:45:35;;;;;;;102.45;39.42;;;2.20;71.50;;;;;;4934920;28;20091;-62
2024/01/30 05:48:01;;;;;;;73.20;30.67;;;2.20;71.50;;;;;;5018207;28;20383;-64
2024/01/30 05:50:27;;;;;;;93.05;26.50;;;2.20;71.50;;;;;;5017266;28;20048;-62
2024/01/30 05:52:53;;;;;;;93.43;23.27;;;2.20;71.60;;;;;;5016374;28;20033;-63
2024/01/30 05:55:18;;;;;;;62.85;19.48;;;2.20;71.60;;;;;;5026822;28;20033;-63
2024/01/30 05:57:44;;;;;;;62.42;22.30;;;2.20;71.60;;;;;;5006033;28;20045;-62
2024/01/30 06:00:10;;;;;;;51.00;21.30;;;2.20;71.70;;;;;;5018308;28;20083;-62
2024/01/30 06:02:36;;;;;;;64.85;29.27;;;2.10;71.60;;;;;;5013444;28;20030;-63
2024/01/30 06:05:02;;;;;;;57.97;25.98;;;2.10;71.60;;;;;;5006916;28;20026;-61
2024/01/30 06:07:27;;;;;;;64.78;28.83;;;2.10;71.60;;;;;;5007920;28;20030;-62
2024/01/30 06:09:53;;;;;;;58.00;27.80;;;2.10;71.60;;;;;;5012754;28;20043;-62
2024/01/30 06:12:19;;;;;;;75.40;27.73;;;2.10;71.50;;;;;;5020296;28;20141;-62
2024/01/30 06:14:44;;;;;;;59.72;24.77;;;2.00;71.40;;;;;;5016966;28;20040;-62
2024/01/30 06:17:11;;;;;;;45.65;21.20;;;2.00;71.40;;;;;;5020653;28;20049;-62
2024/01/30 06:19:38;;;;;;;48.03;23.58;;;2.00;71.40;;;;;;5014112;28;20117;-61
2024/01/30 06:22:04;;;;;;;42.55;21.33;;;2.00;71.40;;;;;;5020597;28;20021;-63
2024/01/30 06:24:30;;;;;;;44.53;22.08;;;2.00;71.30;;;;;;5018717;28;20040;-63
2024/01/30 06:26:56;;;;;;;40.15;20.10;;;1.90;71.10;;;;;;5017257;28;20080;-62
2024/01/30 06:29:22;;;;;;;39.20;19.98;;;1.90;71.20;;;;;;5017496;28;20104;-61
2024/01/30 06:31:47;;;;;;;35.75;20.00;;;1.90;71.40;;;;;;5012660;28;20076;-62
2024/01/30 06:34:13;;;;;;;38.50;20.35;;;1.90;71.50;;;;;;5011650;28;20076;-62
2024/01/30 06:36:39;;;;;;;44.38;20.63;;;1.80;71.40;;;;;;5016188;28;20038;-63
2024/01/30 06:39:05;;;;;;;34.75;19.35;;;1.80;71.50;;;;;;5015992;28;20021;-62
2024/01/30 06:41:31;;;;;;;36.20;18.30;;;1.80;71.40;;;;;;5021889;28;20036;-63
2024/01/30 06:43:57;;;;;;;37.72;20.25;;;1.80;71.40;;;;;;5016873;28;20108;-62
2024/01/30 06:46:23;;;;;;;39.38;21.02;;;1.80;71.40;;;;;;4945281;28;20199;-63
2024/01/30 06:48:49;;;;;;;39.85;19.52;;;1.80;71.40;;;;;;5019828;28;20896;-63
2024/01/30 06:51:14;;;;;;;39.17;19.88;;;1.80;71.40;;;;;;5014151;28;20034;-64
2024/01/30 06:53:40;;;;;;;38.70;19.00;;;1.80;71.40;;;;;;5021724;28;20104;-62
2024/01/30 06:56:06;;;;;;;39.72;20.52;;;1.80;71.40;;;;;;5016445;28;20450;-62
2024/01/30 06:58:32;;;;;;;35.35;19.70;;;1.80;71.40;;;;;;5019476;28;20036;-62
2024/01/30 07:00:58;;;;;;;38.67;19.85;;;1.80;71.40;;;;;;5018371;28;21127;-62
2024/01/30 07:03:24;;;;;;;39.33;20.27;;;1.80;71.50;;;;;;5020025;28;20117;-62
2024/01/30 07:05:50;;;;;;;37.88;20.15;;;1.80;71.50;;;;;;5019598;28;20132;-62
2024/01/30 07:08:18;;;;;;;40.78;19.95;;;1.80;71.60;;;;;;5019722;28;20029;-63
2024/01/30 07:10:44;;;;;;;36.17;19.77;;;1.80;71.60;;;;;;5011420;28;20056;-63
2024/01/30 07:13:13;;;;;;;37.35;20.10;;;1.80;71.70;;;;;;5021810;28;20041;-64
2024/01/30 07:15:39;;;;;;;35.13;19.83;;;1.80;71.80;;;;;;5012583;28;20049;-64
2024/01/30 07:18:05;;;;;;;35.17;20.08;;;1.80;71.70;;;;;;5016233;28;20120;-63
2024/01/30 07:20:31;;;;;;;32.45;18.85;;;1.90;71.80;;;;;;5010464;28;20037;-65
2024/01/30 07:23:00;;;;;;;39.53;18.80;;;1.90;71.80;;;;;;5009283;28;20017;-64
2024/01/30 07:25:26;;;;;;;35.05;20.08;;;2.00;71.90;;;;;;5017177;28;20053;-64
2024/01/30 07:27:53;;;;;;;35.75;19.73;;;2.00;72.50;;;;;;5015503;28;20539;-64
2024/01/30 07:30:23;;;;;;;39.60;21.48;;;2.00;71.70;;;;;;5015761;28;20492;-62
2024/01/30 07:32:48;;;;;;;51.40;26.92;;;2.10;71.90;;;;;;5011897;28;20044;-64
2024/01/30 07:35:14;;;;;;;45.08;23.48;;;2.20;71.80;;;;;;5020689;28;20033;-64
2024/01/30 07:37:40;;;;;;;41.50;21.73;;;2.20;71.90;;;;;;5020223;28;20483;-64
2024/01/30 07:40:07;;;;;;;39.80;21.80;;;2.30;71.90;;;;;;5015554;28;20026;-63
2024/01/30 07:42:33;;;;;;;39.05;22.35;;;2.40;72.00;;;;;;5006826;28;20022;-63
2024/01/30 07:45:00;;;;;;;40.42;22.52;;;2.40;71.90;;;;;;5023538;28;20033;-62
2024/01/30 07:47:26;;;;;;;39.80;21.55;;;2.50;72.60;;;;;;5017100;28;20136;-65
2024/01/30 07:49:52;;;;;;;33.22;20.75;;;2.60;71.90;;;;;;5019633;28;20087;-64
2024/01/30 07:52:18;;;;;;;32.80;19.73;;;2.60;71.90;;;;;;5014278;28;20042;-63
2024/01/30 07:54:44;;;;;;;35.03;18.58;;;2.70;71.80;;;;;;5014656;28;20033;-65
2024/01/30 07:57:09;;;;;;;36.90;18.17;;;2.70;71.70;;;;;;5019880;28;20025;-63
2024/01/30 07:59:37;;;;;;;32.40;19.02;;;2.80;71.70;;;;;;5009683;28;20423;-64
2024/01/30 08:02:03;;;;;;;28.92;17.00;;;2.80;71.70;;;;;;5010951;28;20113;-64
2024/01/30 08:04:28;;;;;;;37.63;19.42;;;2.90;71.90;;;;;;5018138;28;20707;-63
2024/01/30 08:06:55;;;;;;;37.28;19.55;;;3.00;72.00;;;;;;5012299;28;20060;-64
2024/01/30 08:09:21;;;;;;;31.40;18.63;;;3.00;71.90;;;;;;5017586;28;20045;-64
2024/01/30 08:11:46;;;;;;;36.95;20.65;;;3.10;71.90;;;;;;5013961;28;20029;-64
2024/01/30 08:14:13;;;;;;;34.97;21.98;;;3.20;71.90;;;;;;5021657;28;20045;-63
2024/01/30 08:16:39;;;;;;;34.50;20.77;;;3.30;71.90;;;;;;5020689;28;20021;-64
2024/01/30 08:19:04;;;;;;;35.95;21.23;;;3.40;71.80;;;;;;5019716;28;20024;-64
2024/01/30 08:21:35;;;;;;;34.08;19.80;;;3.50;71.90;;;;;;5016429;28;20037;-63
2024/01/30 08:24:05;;;;;;;37.75;20.83;;;3.60;71.80;;;;;;5014811;28;20026;-63
2024/01/30 08:26:32;;;;;;;37.45;20.35;;;3.80;71.80;;;;;;5013415;28;20025;-63
2024/01/30 08:28:57;;;;;;;39.30;22.58;;;3.90;71.70;;;;;;5019527;28;20202;-63
2024/01/30 08:31:23;;;;;;;39.40;23.33;;;4.00;71.60;;;;;;5010710;28;20128;-63
2024/01/30 08:33:49;;;;;;;40.63;23.38;;;4.10;71.50;;;;;;5017103;28;20029;-64
2024/01/30 08:36:16;;;;;;;40.03;23.83;;;4.20;71.40;;;;;;5012708;28;20051;-64
2024/01/30 08:38:42;;;;;;;41.25;22.65;;;4.30;71.30;;;;;;5015963;28;20026;-64
2024/01/30 08:41:08;;;;;;;38.22;22.50;;;4.40;70.70;;;;;;5031077;28;20571;-65
2024/01/30 08:43:33;;;;;;;33.40;20.55;;;4.60;71.30;;;;;;5016915;28;20025;-63
2024/01/30 08:46:03;;;;;;;33.35;20.30;;;4.70;71.70;;;;;;4916203;28;20033;-64
2024/01/30 08:48:29;;;;;;;36.97;20.75;;;4.70;70.80;;;;;;5014306;28;20040;-65
2024/01/30 08:50:54;;;;;;;39.78;21.75;;;4.80;70.80;;;;;;5012854;28;20424;-64
2024/01/30 08:53:20;;;;;;;38.47;22.42;;;4.90;70.60;;;;;;5011542;28;20108;-63
2024/01/30 08:55:46;;;;;;;39.50;22.95;;;5.00;70.40;;;;;;5007782;28;20036;-63
2024/01/30 08:58:11;;;;;;;41.95;24.38;;;5.00;70.40;;;;;;5007807;28;20116;-63
2024/01/30 09:00:37;;;;;;;39.80;21.98;;;5.10;70.50;;;;;;5008096;28;20052;-63
2024/01/30 09:03:06;;;;;;;32.97;21.52;;;5.20;70.60;;;;;;5010828;28;20053;-64
2024/01/30 09:05:31;;;;;;;42.00;21.13;;;5.20;70.60;;;;;;5007702;28;20489;-63
2024/01/30 09:07:57;;;;;;;39.22;20.65;;;5.30;70.60;;;;;;5013738;28;20022;-63
2024/01/30 09:10:22;;;;;;;29.77;19.55;;;5.50;70.70;;;;;;5010108;28;20033;-64
2024/01/30 09:12:49;;;;;;;30.55;18.50;;;5.50;70.50;;;;;;5012003;28;20026;-64
2024/01/30 09:15:14;;;;;;;27.55;17.70;;;5.70;70.50;;;;;;5008265;28;20029;-64
2024/01/30 09:17:40;;;;;;;25.63;16.65;;;5.80;70.30;;;;;;5012025;28;20030;-63
2024/01/30 09:20:06;;;;;;;28.33;16.02;;;5.90;70.20;;;;;;5010135;28;20036;-63
2024/01/30 09:22:32;;;;;;;28.92;16.02;;;6.00;69.80;;;;;;5015294;28;20025;-64
2024/01/30 09:24:58;;;;;;;26.13;15.52;;;6.00;69.50;;;;;;5015465;28;20067;-63
2024/01/30 09:27:24;;;;;;;25.30;14.40;;;6.10;69.50;;;;;;5011765;28;20022;-63
2024/01/30 09:29:49;;;;;;;27.60;15.05;;;6.20;69.40;;;;;;5023682;28;20048;-63
2024/01/30 09:32:15;;;;;;;22.63;14.35;;;6.20;69.20;;;;;;5020373;28;20026;-64
2024/01/30 09:34:41;;;;;;;23.95;13.85;;;6.30;69.00;;;;;;5014586;28;20116;-64
2024/01/30 09:37:07;;;;;;;26.10;15.82;;;6.30;68.70;;;;;;5016635;28;20022;-63
2024/01/30 09:39:33;;;;;;;29.10;16.38;;;6.30;68.70;;;;;;5014132;28;20034;-63
2024/01/30 09:42:07;;;;;;;33.50;19.55;;;6.30;68.60;;;;;;5014832;28;20025;-64
2024/01/30 09:44:36;;;;;;;32.63;19.08;;;6.30;68.30;;;;;;5018815;28;20472;-63
2024/01/30 09:47:05;;;;;;;28.70;18.42;;;6.30;68.40;;;;;;5019309;28;20021;-64
2024/01/30 09:49:35;;;;;;;32.25;18.92;;;6.30;68.70;;;;;;5017153;28;20045;-63
2024/01/30 09:52:05;;;;;;;27.33;17.50;;;6.40;68.90;;;;;;5019657;28;20029;-63
2024/01/30 09:54:34;;;;;;;27.38;17.42;;;6.30;69.00;;;;;;5019729;28;20041;-63
2024/01/30 09:56:59;;;;;;;35.25;21.70;;;6.40;69.10;;;;;;5024399;28;20101;-63
2024/01/30 09:59:25;;;;;;;32.38;18.30;;;6.50;69.10;;;;;;5014883;28;20124;-64
2024/01/30 10:01:51;;;;;;;27.30;16.70;;;6.60;69.20;;;;;;5012712;28;20112;-63
2024/01/30 10:04:17;;;;;;;29.85;16.33;;;6.60;69.10;;;;;;5011633;28;20049;-65
2024/01/30 10:06:43;;;;;;;29.10;18.38;;;6.70;69.00;;;;;;5022513;28;20079;-65
2024/01/30 10:09:13;;;;;;;29.02;17.80;;;6.80;68.90;;;;;;5015998;28;20030;-63
2024/01/30 10:11:38;;;;;;;29.55;17.80;;;6.80;68.80;;;;;;5021849;28;20026;-65
2024/01/30 10:14:04;;;;;;;28.75;17.98;;;6.90;68.70;;;;;;5014435;28;20117;-63
2024/01/30 10:16:30;;;;;;;28.58;18.88;;;6.90;68.50;;;;;;5016726;28;20404;-63
2024/01/30 10:18:56;;;;;;;28.00;18.00;;;7.00;68.40;;;;;;5020537;28;20818;-62
2024/01/30 10:21:22;;;;;;;30.88;18.33;;;7.10;68.30;;;;;;5011706;28;20093;-63
2024/01/30 10:23:48;;;;;;;28.05;17.52;;;7.10;68.30;;;;;;5018804;28;20025;-63
2024/01/30 10:26:16;;;;;;;32.97;19.77;;;7.10;68.30;;;;;;5016807;28;20035;-63
2024/01/30 10:28:42;;;;;;;35.40;19.05;;;7.10;68.20;;;;;;5013767;28;20476;-64
2024/01/30 10:31:07;;;;;;;31.17;18.63;;;7.10;68.10;;;;;;5013746;28;20034;-64
2024/01/30 10:33:33;;;;;;;35.17;19.08;;;7.10;68.20;;;;;;5020554;28;20060;-65
2024/01/30 10:36:04;;;;;;;31.50;19.25;;;7.20;68.30;;;;;;5015052;28;20129;-64
2024/01/30 10:38:31;;;;;;;32.05;18.65;;;7.30;68.40;;;;;;5015327;28;20057;-64
2024/01/30 10:40:59;;;;;;;32.38;18.02;;;7.30;68.40;;;;;;5013573;28;20492;-63
2024/01/30 10:43:39;;;;;;;30.73;18.90;;;7.40;68.40;;;;;;5017958;28;20077;-64
2024/01/30 10:46:18;;;;;;;29.40;17.85;;;7.50;68.30;;;;;;5019610;28;20065;-64
2024/01/30 10:48:50;;;;;;;49.40;26.70;;;7.60;68.40;;;;;;5016314;28;20045;-64
2024/01/30 10:51:18;;;;;;;41.83;25.92;;;7.70;68.50;;;;;;5010954;28;20386;-63
2024/01/30 10:53:46;;;;;;;26.98;17.98;;;7.80;68.60;;;;;;5016082;28;20524;-63
2024/01/30 10:56:13;;;;;;;24.55;16.50;;;7.90;68.60;;;;;;5016107;28;20025;-62
2024/01/30 10:58:39;;;;;;;23.38;14.57;;;8.00;68.50;;;;;;5016000;28;20041;-63
2024/01/30 11:01:07;;;;;;;24.77;15.20;;;8.20;68.60;;;;;;5017471;28;20021;-64
2024/01/30 11:03:36;;;;;;;25.73;14.95;;;8.30;68.70;;;;;;5016801;28;20026;-63
2024/01/30 11:06:02;;;;;;;25.25;15.85;;;8.40;68.30;;;;;;5020791;28;20022;-63
2024/01/30 11:08:31;;;;;;;22.50;15.93;;;8.60;68.30;;;;;;5018734;28;20040;-64
2024/01/30 11:10:59;;;;;;;28.88;16.23;;;8.70;68.00;;;;;;5019445;28;20443;-63
2024/01/30 11:13:29;;;;;;;27.85;15.63;;;8.90;67.80;;;;;;5016088;28;20029;-63
2024/01/30 11:15:54;;;;;;;24.55;15.93;;;9.00;67.50;;;;;;5025980;28;20025;-64
2024/01/30 11:18:28;;;;;;;27.67;15.52;;;9.10;67.40;;;;;;5012753;28;20025;-64
2024/01/30 11:20:57;;;;;;;40.03;27.10;;;9.20;67.20;;;;;;5013165;28;20107;-65
2024/01/30 11:23:23;;;;;;;29.50;17.90;;;9.30;67.20;;;;;;5018205;28;20026;-64
2024/01/30 11:25:49;;;;;;;26.85;16.35;;;9.40;67.10;;;;;;5015636;28;20040;-65
2024/01/30 11:28:16;;;;;;;25.17;15.60;;;9.50;66.90;;;;;;5016117;28;20412;-64
2024/01/30 11:30:42;;;;;;;25.50;15.70;;;9.60;66.60;;;;;;5008585;28;20599;-64
2024/01/30 11:33:11;;;;;;;25.80;16.27;;;9.60;66.40;;;;;;5014002;28;20029;-65
2024/01/30 11:35:41;;;;;;;24.13;15.23;;;9.60;66.20;;;;;;5014426;28;20053;-64
2024/01/30 11:38:09;;;;;;;23.27;15.63;;;9.70;66.20;;;;;;5014735;28;20025;-63
2024/01/30 11:40:37;;;;;;;26.52;17.17;;;9.70;66.00;;;;;;5023380;28;20032;-64
2024/01/30 11:43:04;;;;;;;20.88;15.23;;;9.70;65.90;;;;;;5014554;28;20052;-64
2024/01/30 11:45:31;;;;;;;21.35;14.02;;;9.70;66.00;;;;;;5020453;28;20014;-65
2024/01/30 11:47:57;;;;;;;22.17;14.60;;;9.70;66.00;;;;;;5020539;28;20037;-63
2024/01/30 11:50:24;;;;;;;24.60;14.65;;;9.70;65.90;;;;;;5018858;28;20045;-63
2024/01/30 11:52:50;;;;;;;20.25;14.45;;;9.80;66.00;;;;;;5013994;28;20060;-64
2024/01/30 11:55:17;;;;;;;20.48;13.60;;;9.90;66.00;;;;;;5020934;28;20515;-63
2024/01/30 11:57:44;;;;;;;21.10;14.10;;;9.90;66.00;;;;;;5012569;28;20093;-63
2024/01/30 12:00:20;;;;;;;21.05;13.98;;;9.90;66.10;;;;;;5025151;28;20080;-64
2024/01/30 12:02:50;;;;;;;29.75;15.27;;;10.00;65.90;;;;;;5014429;28;20416;-64
2024/01/30 12:05:18;;;;;;;20.92;14.43;;;10.10;65.90;;;;;;5013136;28;20034;-64
2024/01/30 12:07:45;;;;;;;25.02;14.57;;;10.10;65.80;;;;;;5013893;28;20021;-63
2024/01/30 12:10:13;;;;;;;25.77;14.93;;;10.20;65.70;;;;;;5017570;28;20044;-63
2024/01/30 12:12:41;;;;;;;22.05;14.32;;;10.30;65.40;;;;;;5016402;28;20122;-63
2024/01/30 12:15:07;;;;;;;25.08;14.40;;;10.30;65.20;;;;;;5019667;28;20022;-64
2024/01/30 12:17:37;;;;;;;20.52;13.80;;;10.40;65.10;;;;;;5015753;28;20078;-63
2024/01/30 12:20:08;;;;;;;24.10;13.70;;;10.40;65.10;;;;;;5018521;28;20072;-64
2024/01/30 12:22:41;;;;;;;20.25;13.98;;;10.50;65.00;;;;;;5008094;28;20025;-63
2024/01/30 12:25:12;;;;;;;22.20;13.30;;;10.50;65.00;;;;;;5008581;28;20173;-63
2024/01/30 12:27:39;;;;;;;26.55;16.02;;;10.60;64.90;;;;;;5012814;28;20117;-64
2024/01/30 12:30:09;;;;;;;51.72;30.00;;;10.60;64.70;;;;;;5012856;28;20064;-64
2024/01/30 12:32:42;;;;;;;86.90;42.45;;;10.70;64.80;;;;;;5017413;28;20047;-64